sensor_id;sensor_type;location;lat;lon;timestamp;temperature;humidity
8611;DHT22;4343;53.648;10.098;2024-01-10T00:01:33;-5.20;99.90
8611;DHT22;4343;53.648;10.098;2024-01-10T00:03:58;-5.10;99.90
8611;DHT22;4343;53.648;10.098;2024-01-10T00:06:24;-5.10;99.90
8611;DHT22;4343;53.648;10.098;2024-01-10T00:08:50;-5.10;99.90
8611;DHT22;4343;53.648;10.098;2024-01-10T00:11:15;-5.10;99.90
8611;DHT22;4343;53.648;10.098;2024-01-10T00:13:41;-5.10;99.90
8611;DHT22;4343;53.648;10.098;2024-01-10T00:16:07;-5.10;99.90
8611;DHT22;4343;53.648;10.098;2024-01-10T00:18:33;-5.00;99.90
8611;DHT22;4343;53.648;10.098;2024-01-10T00:20:59;-5.00;99.90
8611;DHT22;4343;53.648;10.098;2024-01-10T00:23:24;-5.00;99.90
8611;DHT22;4343;53.648;10.098;2024-01-10T00:25:50;-5.00;99.90
8611;DHT22;4343;53.648;10.098;2024-01-10T00:28:16;-5.00;99.90
8611;DHT22;4343;53.648;10.098;2024-01-10T00:30:45;-5.00;99.90
8611;DHT22;4343;53.648;10.098;2024-01-10T00:33:12;-4.90;99.90
8611;DHT22;4343;53.648;10.098;2024-01-10T00:35:38;-4.90;99.90
8611;DHT22;4343;53.648;10.098;2024-01-10T00:38:03;-4.90;99.90
8611;DHT22;4343;53.648;10.098;2024-01-10T00:40:29;-4.90;99.90
8611;DHT22;4343;53.648;10.098;2024-01-10T00:42:55;-4.90;99.90
8611;DHT22;4343;53.648;10.098;2024-01-10T00:45:20;-4.80;99.90
8611;DHT22;4343;53.648;10.098;2024-01-10T00:47:48;-4.80;99.90
8611;DHT22;4343;53.648;10.098;2024-01-10T00:50:13;-4.80;99.90
8611;DHT22;4343;53.648;10.098;2024-01-10T00:52:39;-4.80;99.90
8611;DHT22;4343;53.648;10.098;2024-01-10T00:55:04;-4.80;99.90
8611;DHT22;4343;53.648;10.098;2024-01-10T00:57:30;-4.80;99.90
8611;DHT22;4343;53.648;10.098;2024-01-10T00:59:56;-4.70;99.90
8611;DHT22;4343;53.648;10.098;2024-01-10T01:02:21;-4.70;99.90
8611;DHT22;4343;53.648;10.098;2024-01-10T01:04:46;-4.70;99.90
8611;DHT22;4343;53.648;10.098;2024-01-10T01:07:12;-4.70;99.90
8611;DHT22;4343;53.648;10.098;2024-01-10T01:09:37;-4.70;99.90
8611;DHT22;4343;53.648;10.098;2024-01-10T01:12:03;-4.70;99.90
8611;DHT22;4343;53.648;10.098;2024-01-10T01:14:29;-4.60;99.90
8611;DHT22;4343;53.648;10.098;2024-01-10T01:16:54;-4.60;99.90
8611;DHT22;4343;53.648;10.098;2024-01-10T01:19:20;-4.60;99.90
8611;DHT22;4343;53.648;10.098;2024-01-10T01:21:45;-4.60;99.90
8611;DHT22;4343;53.648;10.098;2024-01-10T01:24:11;-4.60;99.90
8611;DHT22;4343;53.648;10.098;2024-01-10T01:26:36;-4.60;99.90
8611;DHT22;4343;53.648;10.098;2024-01-10T01:29:02;-4.60;99.90
8611;DHT22;4343;53.648;10.098;2024-01-10T01:31:27;-4.50;99.90
8611;DHT22;4343;53.648;10.098;2024-01-10T01:33:53;-4.50;99.90
8611;DHT22;4343;53.648;10.098;2024-01-10T01:36:18;-4.50;99.90
8611;DHT22;4343;53.648;10.098;2024-01-10T01:38:44;-4.50;99.90
8611;DHT22;4343;53.648;10.098;2024-01-10T01:41:10;-4.50;99.90
8611;DHT22;4343;53.648;10.098;2024-01-10T01:43:35;-4.50;99.90
8611;DHT22;4343;53.648;10.098;2024-01-10T01:46:02;-4.50;99.90
8611;DHT22;4343;53.648;10.098;2024-01-10T01:48:29;-4.40;99.90
8611;DHT22;4343;53.648;10.098;2024-01-10T01:50:57;-4.40;99.90
8611;DHT22;4343;53.648;10.098;2024-01-10T01:53:25;-4.40;99.90
8611;DHT22;4343;53.648;10.098;2024-01-10T01:55:52;-4.40;99.90
8611;DHT22;4343;53.648;10.098;2024-01-10T01:58:19;-4.40;99.90
8611;DHT22;4343;53.648;10.098;2024-01-10T02:00:46;-4.40;99.90
8611;DHT22;4343;53.648;10.098;2024-01-10T02:03:11;-4.40;99.90
8611;DHT22;4343;53.648;10.098;2024-01-10T02:05:37;-4.40;99.90
8611;DHT22;4343;53.648;10.098;2024-01-10T02:08:03;-4.30;99.90
8611;DHT22;4343;53.648;10.098;2024-01-10T02:10:29;-4.30;99.90
8611;DHT22;4343;53.648;10.098;2024-01-10T02:12:54;-4.30;99.90
8611;DHT22;4343;53.648;10.098;2024-01-10T02:15:20;-4.30;99.90
8611;DHT22;4343;53.648;10.098;2024-01-10T02:17:46;-4.30;99.90
8611;DHT22;4343;53.648;10.098;2024-01-10T02:20:13;-4.30;99.90
8611;DHT22;4343;53.648;10.098;2024-01-10T02:22:39;-4.20;99.90
8611;DHT22;4343;53.648;10.098;2024-01-10T02:25:08;-4.20;99.90
8611;DHT22;4343;53.648;10.098;2024-01-10T02:27:35;-4.20;99.90
8611;DHT22;4343;53.648;10.098;2024-01-10T02:30:02;-4.20;99.90
8611;DHT22;4343;53.648;10.098;2024-01-10T02:32:28;-4.20;99.90
8611;DHT22;4343;53.648;10.098;2024-01-10T02:34:54;-4.10;99.90
8611;DHT22;4343;53.648;10.098;2024-01-10T02:37:19;-4.10;99.90
8611;DHT22;4343;53.648;10.098;2024-01-10T02:39:45;-4.10;99.90
8611;DHT22;4343;53.648;10.098;2024-01-10T02:42:11;-4.10;99.90
8611;DHT22;4343;53.648;10.098;2024-01-10T02:44:36;-4.10;99.90
8611;DHT22;4343;53.648;10.098;2024-01-10T02:47:02;-4.10;99.90
8611;DHT22;4343;53.648;10.098;2024-01-10T02:49:28;-4.10;99.90
8611;DHT22;4343;53.648;10.098;2024-01-10T02:51:53;-4.00;99.90
8611;DHT22;4343;53.648;10.098;2024-01-10T02:54:19;-4.00;99.90
8611;DHT22;4343;53.648;10.098;2024-01-10T02:56:44;-4.00;99.90
8611;DHT22;4343;53.648;10.098;2024-01-10T02:59:10;-4.00;99.90
8611;DHT22;4343;53.648;10.098;2024-01-10T03:01:35;-4.00;99.90
8611;DHT22;4343;53.648;10.098;2024-01-10T03:04:01;-4.00;99.90
8611;DHT22;4343;53.648;10.098;2024-01-10T03:06:26;-3.90;99.90
8611;DHT22;4343;53.648;10.098;2024-01-10T03:08:52;-3.90;99.90
8611;DHT22;4343;53.648;10.098;2024-01-10T03:11:17;-3.90;99.90
8611;DHT22;4343;53.648;10.098;2024-01-10T03:13:46;-3.90;99.90
8611;DHT22;4343;53.648;10.098;2024-01-10T03:16:12;-3.90;99.90
8611;DHT22;4343;53.648;10.098;2024-01-10T03:18:37;-3.90;99.90
8611;DHT22;4343;53.648;10.098;2024-01-10T03:21:03;-3.90;99.90
8611;DHT22;4343;53.648;10.098;2024-01-10T03:23:29;-3.90;99.90
8611;DHT22;4343;53.648;10.098;2024-01-10T03:25:56;-3.90;99.90
8611;DHT22;4343;53.648;10.098;2024-01-10T03:28:21;-3.80;99.90
8611;DHT22;4343;53.648;10.098;2024-01-10T03:30:47;-3.80;99.90
8611;DHT22;4343;53.648;10.098;2024-01-10T03:33:12;-3.80;99.90
8611;DHT22;4343;53.648;10.098;2024-01-10T03:35:38;-3.80;99.90
8611;DHT22;4343;53.648;10.098;2024-01-10T03:38:04;-3.80;99.90
8611;DHT22;4343;53.648;10.098;2024-01-10T03:40:29;-3.80;99.90
8611;DHT22;4343;53.648;10.098;2024-01-10T03:42:55;-3.70;99.90
8611;DHT22;4343;53.648;10.098;2024-01-10T03:45:20;-3.70;99.90
8611;DHT22;4343;53.648;10.098;2024-01-10T03:47:49;-3.70;99.90
8611;DHT22;4343;53.648;10.098;2024-01-10T03:50:20;-3.70;99.90
8611;DHT22;4343;53.648;10.098;2024-01-10T03:52:46;-3.70;99.90
8611;DHT22;4343;53.648;10.098;2024-01-10T03:55:12;-3.70;99.90
8611;DHT22;4343;53.648;10.098;2024-01-10T03:57:39;-3.70;99.90
8611;DHT22;4343;53.648;10.098;2024-01-10T04:00:05;-3.60;99.90
8611;DHT22;4343;53.648;10.098;2024-01-10T04:02:32;-3.60;99.90
8611;DHT22;4343;53.648;10.098;2024-01-10T04:04:58;-3.60;99.90
8611;DHT22;4343;53.648;10.098;2024-01-10T04:07:23;-3.60;99.90
8611;DHT22;4343;53.648;10.098;2024-01-10T04:09:49;-3.60;99.90
8611;DHT22;4343;53.648;10.098;2024-01-10T04:12:14;-3.50;99.90
8611;DHT22;4343;53.648;10.098;2024-01-10T04:14:40;-3.60;99.90
8611;DHT22;4343;53.648;10.098;2024-01-10T04:17:05;-3.60;99.90
8611;DHT22;4343;53.648;10.098;2024-01-10T04:19:32;-3.50;99.90
8611;DHT22;4343;53.648;10.098;2024-01-10T04:21:58;-3.50;99.90
8611;DHT22;4343;53.648;10.098;2024-01-10T04:24:24;-3.50;99.90
8611;DHT22;4343;53.648;10.098;2024-01-10T04:26:50;-3.50;99.90
8611;DHT22;4343;53.648;10.098;2024-01-10T04:29:15;-3.50;99.90
8611;DHT22;4343;53.648;10.098;2024-01-10T04:31:41;-3.50;99.90
8611;DHT22;4343;53.648;10.098;2024-01-10T04:34:07;-3.50;99.90
8611;DHT22;4343;53.648;10.098;2024-01-10T04:36:32;-3.50;99.90
8611;DHT22;4343;53.648;10.098;2024-01-10T04:38:58;-3.40;99.90
8611;DHT22;4343;53.648;10.098;2024-01-10T04:41:23;-3.40;99.90
8611;DHT22;4343;53.648;10.098;2024-01-10T04:43:49;-3.40;99.90
8611;DHT22;4343;53.648;10.098;2024-01-10T04:46:15;-3.40;99.90
8611;DHT22;4343;53.648;10.098;2024-01-10T04:48:40;-3.40;99.90
8611;DHT22;4343;53.648;10.098;2024-01-10T04:51:06;-3.40;99.90
8611;DHT22;4343;53.648;10.098;2024-01-10T04:53:32;-3.40;99.90
8611;DHT22;4343;53.648;10.098;2024-01-10T04:55:57;-3.40;99.90
8611;DHT22;4343;53.648;10.098;2024-01-10T04:58:23;-3.40;99.90
8611;DHT22;4343;53.648;10.098;2024-01-10T05:00:48;-3.30;99.90
8611;DHT22;4343;53.648;10.098;2024-01-10T05:03:14;-3.30;99.90
8611;DHT22;4343;53.648;10.098;2024-01-10T05:05:41;-3.30;99.90
8611;DHT22;4343;53.648;10.098;2024-01-10T05:08:06;-3.30;99.90
8611;DHT22;4343;53.648;10.098;2024-01-10T05:10:32;-3.30;99.90
8611;DHT22;4343;53.648;10.098;2024-01-10T05:12:57;-3.30;99.90
8611;DHT22;4343;53.648;10.098;2024-01-10T05:15:23;-3.30;99.90
8611;DHT22;4343;53.648;10.098;2024-01-10T05:17:48;-3.30;99.90
8611;DHT22;4343;53.648;10.098;2024-01-10T05:20:14;-3.30;99.90
8611;DHT22;4343;53.648;10.098;2024-01-10T05:22:40;-3.30;99.90
8611;DHT22;4343;53.648;10.098;2024-01-10T05:25:06;-3.30;99.90
8611;DHT22;4343;53.648;10.098;2024-01-10T05:27:32;-3.30;99.90
8611;DHT22;4343;53.648;10.098;2024-01-10T05:29:57;-3.20;99.90
8611;DHT22;4343;53.648;10.098;2024-01-10T05:32:25;-3.20;99.90
8611;DHT22;4343;53.648;10.098;2024-01-10T05:34:51;-3.20;99.90
8611;DHT22;4343;53.648;10.098;2024-01-10T05:37:17;-3.20;99.90
8611;DHT22;4343;53.648;10.098;2024-01-10T05:39:42;-3.20;99.90
8611;DHT22;4343;53.648;10.098;2024-01-10T05:42:08;-3.30;99.90
8611;DHT22;4343;53.648;10.098;2024-01-10T05:44:33;-3.20;99.90
8611;DHT22;4343;53.648;10.098;2024-01-10T05:46:59;-3.20;99.90
8611;DHT22;4343;53.648;10.098;2024-01-10T05:49:25;-3.20;99.90
8611;DHT22;4343;53.648;10.098;2024-01-10T05:51:51;-3.20;99.90
8611;DHT22;4343;53.648;10.098;2024-01-10T05:54:16;-3.20;99.90
8611;DHT22;4343;53.648;10.098;2024-01-10T05:56:43;-3.20;99.90
8611;DHT22;4343;53.648;10.098;2024-01-10T05:59:09;-3.20;99.90
8611;DHT22;4343;53.648;10.098;2024-01-10T06:01:37;-3.20;99.90
8611;DHT22;4343;53.648;10.098;2024-01-10T06:04:04;-3.20;99.90
8611;DHT22;4343;53.648;10.098;2024-01-10T06:06:30;-3.20;99.90
8611;DHT22;4343;53.648;10.098;2024-01-10T06:08:55;-3.10;99.90
8611;DHT22;4343;53.648;10.098;2024-01-10T06:11:21;-3.10;99.90
8611;DHT22;4343;53.648;10.098;2024-01-10T06:13:46;-3.10;99.90
8611;DHT22;4343;53.648;10.098;2024-01-10T06:16:12;-3.10;99.90
8611;DHT22;4343;53.648;10.098;2024-01-10T06:18:38;-3.10;99.90
8611;DHT22;4343;53.648;10.098;2024-01-10T06:21:04;-3.10;99.90
8611;DHT22;4343;53.648;10.098;2024-01-10T06:23:30;-3.10;99.90
8611;DHT22;4343;53.648;10.098;2024-01-10T06:25:56;-3.10;99.90
8611;DHT22;4343;53.648;10.098;2024-01-10T06:28:21;-3.10;99.90
8611;DHT22;4343;53.648;10.098;2024-01-10T06:30:48;-3.10;99.90
8611;DHT22;4343;53.648;10.098;2024-01-10T06:33:14;-3.00;99.90
8611;DHT22;4343;53.648;10.098;2024-01-10T06:35:40;-3.10;99.90
8611;DHT22;4343;53.648;10.098;2024-01-10T06:38:11;-3.10;99.90
8611;DHT22;4343;53.648;10.098;2024-01-10T06:40:37;-3.00;99.90
8611;DHT22;4343;53.648;10.098;2024-01-10T06:43:04;-3.00;99.90
8611;DHT22;4343;53.648;10.098;2024-01-10T06:45:29;-3.00;99.90
8611;DHT22;4343;53.648;10.098;2024-01-10T06:47:55;-3.00;99.90
8611;DHT22;4343;53.648;10.098;2024-01-10T06:50:20;-3.00;99.90
8611;DHT22;4343;53.648;10.098;2024-01-10T06:52:47;-3.00;99.90
8611;DHT22;4343;53.648;10.098;2024-01-10T06:55:13;-3.00;99.90
8611;DHT22;4343;53.648;10.098;2024-01-10T06:57:39;-3.00;99.90
8611;DHT22;4343;53.648;10.098;2024-01-10T07:00:05;-3.00;99.90
8611;DHT22;4343;53.648;10.098;2024-01-10T07:02:32;-2.90;99.90
8611;DHT22;4343;53.648;10.098;2024-01-10T07:05:01;-2.90;99.90
8611;DHT22;4343;53.648;10.098;2024-01-10T07:07:26;-2.90;99.90
8611;DHT22;4343;53.648;10.098;2024-01-10T07:09:52;-2.90;99.90
8611;DHT22;4343;53.648;10.098;2024-01-10T07:12:17;-2.90;99.90
8611;DHT22;4343;53.648;10.098;2024-01-10T07:14:43;-2.90;99.90
8611;DHT22;4343;53.648;10.098;2024-01-10T07:17:08;-2.80;99.90
8611;DHT22;4343;53.648;10.098;2024-01-10T07:19:34;-2.90;99.90
8611;DHT22;4343;53.648;10.098;2024-01-10T07:21:59;-2.80;99.90
8611;DHT22;4343;53.648;10.098;2024-01-10T07:24:26;-2.80;99.90
8611;DHT22;4343;53.648;10.098;2024-01-10T07:26:51;-2.90;99.90
8611;DHT22;4343;53.648;10.098;2024-01-10T07:29:17;-2.80;99.90
8611;DHT22;4343;53.648;10.098;2024-01-10T07:31:42;-2.80;99.90
8611;DHT22;4343;53.648;10.098;2024-01-10T07:34:08;-2.80;99.90
8611;DHT22;4343;53.648;10.098;2024-01-10T07:36:36;-2.80;99.90
8611;DHT22;4343;53.648;10.098;2024-01-10T07:39:06;-2.80;99.90
8611;DHT22;4343;53.648;10.098;2024-01-10T07:41:31;-2.80;99.90
8611;DHT22;4343;53.648;10.098;2024-01-10T07:43:58;-2.80;99.90
8611;DHT22;4343;53.648;10.098;2024-01-10T07:46:23;-2.70;99.90
8611;DHT22;4343;53.648;10.098;2024-01-10T07:48:49;-2.70;99.90
8611;DHT22;4343;53.648;10.098;2024-01-10T07:51:14;-2.70;99.90
8611;DHT22;4343;53.648;10.098;2024-01-10T07:53:40;-2.70;99.90
8611;DHT22;4343;53.648;10.098;2024-01-10T07:56:06;-2.70;99.90
8611;DHT22;4343;53.648;10.098;2024-01-10T07:58:31;-2.70;99.90
8611;DHT22;4343;53.648;10.098;2024-01-10T08:00:57;-2.70;99.90
8611;DHT22;4343;53.648;10.098;2024-01-10T08:03:22;-2.70;99.90
8611;DHT22;4343;53.648;10.098;2024-01-10T08:05:48;-2.70;99.90
8611;DHT22;4343;53.648;10.098;2024-01-10T08:08:14;-2.70;99.90
8611;DHT22;4343;53.648;10.098;2024-01-10T08:10:40;-2.70;99.90
8611;DHT22;4343;53.648;10.098;2024-01-10T08:13:05;-2.70;99.90
8611;DHT22;4343;53.648;10.098;2024-01-10T08:15:31;-2.60;99.90
8611;DHT22;4343;53.648;10.098;2024-01-10T08:18:00;-2.60;99.90
8611;DHT22;4343;53.648;10.098;2024-01-10T08:20:28;-2.60;99.90
8611;DHT22;4343;53.648;10.098;2024-01-10T08:22:53;-2.60;99.90
8611;DHT22;4343;53.648;10.098;2024-01-10T08:25:19;-2.70;99.90
8611;DHT22;4343;53.648;10.098;2024-01-10T08:27:45;-2.60;99.90
8611;DHT22;4343;53.648;10.098;2024-01-10T08:30:11;-2.60;99.90
8611;DHT22;4343;53.648;10.098;2024-01-10T08:32:36;-2.60;99.90
8611;DHT22;4343;53.648;10.098;2024-01-10T08:35:03;-2.60;99.90
8611;DHT22;4343;53.648;10.098;2024-01-10T08:37:30;-2.60;99.90
8611;DHT22;4343;53.648;10.098;2024-01-10T08:39:56;-2.60;99.90
8611;DHT22;4343;53.648;10.098;2024-01-10T08:42:21;-2.60;99.90
8611;DHT22;4343;53.648;10.098;2024-01-10T08:44:47;-2.60;99.90
8611;DHT22;4343;53.648;10.098;2024-01-10T08:47:12;-2.60;99.90
8611;DHT22;4343;53.648;10.098;2024-01-10T08:49:39;-2.60;99.90
8611;DHT22;4343;53.648;10.098;2024-01-10T08:52:05;-2.50;99.90
8611;DHT22;4343;53.648;10.098;2024-01-10T08:54:30;-2.50;99.90
8611;DHT22;4343;53.648;10.098;2024-01-10T08:56:56;-2.50;99.90
8611;DHT22;4343;53.648;10.098;2024-01-10T08:59:22;-2.50;99.90
8611;DHT22;4343;53.648;10.098;2024-01-10T09:01:47;-2.50;99.90
8611;DHT22;4343;53.648;10.098;2024-01-10T09:04:13;-2.50;99.90
8611;DHT22;4343;53.648;10.098;2024-01-10T09:06:38;-2.50;99.90
8611;DHT22;4343;53.648;10.098;2024-01-10T09:09:04;-2.50;99.90
8611;DHT22;4343;53.648;10.098;2024-01-10T09:11:30;-2.50;99.90
8611;DHT22;4343;53.648;10.098;2024-01-10T09:13:55;-2.40;99.90
8611;DHT22;4343;53.648;10.098;2024-01-10T09:16:21;-2.40;99.90
8611;DHT22;4343;53.648;10.098;2024-01-10T09:18:46;-2.40;99.90
8611;DHT22;4343;53.648;10.098;2024-01-10T09:21:13;-2.40;99.90
8611;DHT22;4343;53.648;10.098;2024-01-10T09:23:39;-2.40;99.90
8611;DHT22;4343;53.648;10.098;2024-01-10T09:26:04;-2.40;99.90
8611;DHT22;4343;53.648;10.098;2024-01-10T09:28:30;-2.40;99.90
8611;DHT22;4343;53.648;10.098;2024-01-10T09:30:55;-2.40;99.90
8611;DHT22;4343;53.648;10.098;2024-01-10T09:33:21;-2.40;99.90
8611;DHT22;4343;53.648;10.098;2024-01-10T09:35:48;-2.40;99.90
8611;DHT22;4343;53.648;10.098;2024-01-10T09:38:13;-2.30;99.90
8611;DHT22;4343;53.648;10.098;2024-01-10T09:40:39;-2.30;99.90
8611;DHT22;4343;53.648;10.098;2024-01-10T09:43:05;-2.30;99.90
8611;DHT22;4343;53.648;10.098;2024-01-10T09:45:44;-2.30;99.90
8611;DHT22;4343;53.648;10.098;2024-01-10T09:48:13;-2.30;99.90
8611;DHT22;4343;53.648;10.098;2024-01-10T09:50:40;-2.30;99.90
8611;DHT22;4343;53.648;10.098;2024-01-10T09:53:07;-2.30;99.90
8611;DHT22;4343;53.648;10.098;2024-01-10T09:55:37;-2.30;99.90
8611;DHT22;4343;53.648;10.098;2024-01-10T09:58:05;-2.30;99.90
8611;DHT22;4343;53.648;10.098;2024-01-10T10:00:32;-2.30;99.90
8611;DHT22;4343;53.648;10.098;2024-01-10T10:02:59;-2.30;99.90
8611;DHT22;4343;53.648;10.098;2024-01-10T10:05:26;-2.30;99.90
8611;DHT22;4343;53.648;10.098;2024-01-10T10:07:52;-2.30;99.90
8611;DHT22;4343;53.648;10.098;2024-01-10T10:10:23;-2.30;99.90
8611;DHT22;4343;53.648;10.098;2024-01-10T10:12:52;-2.30;99.90
8611;DHT22;4343;53.648;10.098;2024-01-10T10:15:22;-2.30;99.90
8611;DHT22;4343;53.648;10.098;2024-01-10T10:17:49;-2.30;99.90
8611;DHT22;4343;53.648;10.098;2024-01-10T10:22:59;-2.30;99.90
8611;DHT22;4343;53.648;10.098;2024-01-10T10:25:30;-2.20;99.90
8611;DHT22;4343;53.648;10.098;2024-01-10T10:27:57;-2.20;99.90
8611;DHT22;4343;53.648;10.098;2024-01-10T10:30:23;-2.20;99.90
8611;DHT22;4343;53.648;10.098;2024-01-10T10:32:49;-2.20;99.90
8611;DHT22;4343;53.648;10.098;2024-01-10T10:35:15;-2.20;99.90
8611;DHT22;4343;53.648;10.098;2024-01-10T10:37:41;-2.20;99.90
8611;DHT22;4343;53.648;10.098;2024-01-10T10:40:07;-2.20;99.90
8611;DHT22;4343;53.648;10.098;2024-01-10T10:42:34;-2.20;99.90
8611;DHT22;4343;53.648;10.098;2024-01-10T10:45:07;-2.10;99.90
8611;DHT22;4343;53.648;10.098;2024-01-10T10:47:36;-2.20;99.90
8611;DHT22;4343;53.648;10.098;2024-01-10T10:50:04;-2.10;99.90
8611;DHT22;4343;53.648;10.098;2024-01-10T10:52:31;-2.10;99.90
8611;DHT22;4343;53.648;10.098;2024-01-10T10:54:58;-2.10;99.90
8611;DHT22;4343;53.648;10.098;2024-01-10T10:57:27;-2.10;99.90
8611;DHT22;4343;53.648;10.098;2024-01-10T10:59:55;-2.10;99.90
8611;DHT22;4343;53.648;10.098;2024-01-10T11:02:22;-2.10;99.90
8611;DHT22;4343;53.648;10.098;2024-01-10T11:04:54;-2.10;99.90
8611;DHT22;4343;53.648;10.098;2024-01-10T11:07:20;-2.00;99.90
8611;DHT22;4343;53.648;10.098;2024-01-10T11:09:47;-2.00;99.90
8611;DHT22;4343;53.648;10.098;2024-01-10T11:15:03;-2.00;99.90
8611;DHT22;4343;53.648;10.098;2024-01-10T11:18:02;-2.00;99.90
8611;DHT22;4343;53.648;10.098;2024-01-10T11:25:35;-2.00;99.90
8611;DHT22;4343;53.648;10.098;2024-01-10T11:28:03;-2.00;99.90
8611;DHT22;4343;53.648;10.098;2024-01-10T11:30:35;-2.00;99.90
8611;DHT22;4343;53.648;10.098;2024-01-10T11:33:24;-2.00;99.90
8611;DHT22;4343;53.648;10.098;2024-01-10T11:36:16;-1.90;99.90
8611;DHT22;4343;53.648;10.098;2024-01-10T11:38:43;-1.90;99.90
8611;DHT22;4343;53.648;10.098;2024-01-10T11:41:20;-2.00;99.90
8611;DHT22;4343;53.648;10.098;2024-01-10T11:43:46;-2.00;99.90
8611;DHT22;4343;53.648;10.098;2024-01-10T11:46:12;-1.90;99.90
8611;DHT22;4343;53.648;10.098;2024-01-10T11:48:38;-1.90;99.90
8611;DHT22;4343;53.648;10.098;2024-01-10T11:51:04;-1.90;99.90
8611;DHT22;4343;53.648;10.098;2024-01-10T11:53:40;-1.90;99.90
8611;DHT22;4343;53.648;10.098;2024-01-10T11:56:14;-1.90;99.90
8611;DHT22;4343;53.648;10.098;2024-01-10T11:58:53;-1.90;99.90
8611;DHT22;4343;53.648;10.098;2024-01-10T12:01:20;-1.90;99.90
8611;DHT22;4343;53.648;10.098;2024-01-10T12:03:46;-1.90;99.90
8611;DHT22;4343;53.648;10.098;2024-01-10T12:06:14;-1.80;99.90
8611;DHT22;4343;53.648;10.098;2024-01-10T12:08:40;-1.90;99.90
8611;DHT22;4343;53.648;10.098;2024-01-10T12:11:05;-1.80;99.90
8611;DHT22;4343;53.648;10.098;2024-01-10T12:13:31;-1.80;99.90
8611;DHT22;4343;53.648;10.098;2024-01-10T12:15:57;-1.80;99.90
8611;DHT22;4343;53.648;10.098;2024-01-10T12:18:23;-1.80;99.90
8611;DHT22;4343;53.648;10.098;2024-01-10T12:20:49;-1.80;99.90
8611;DHT22;4343;53.648;10.098;2024-01-10T12:23:15;-1.80;99.90
8611;DHT22;4343;53.648;10.098;2024-01-10T12:25:40;-1.80;99.90
8611;DHT22;4343;53.648;10.098;2024-01-10T12:28:06;-1.80;99.90
8611;DHT22;4343;53.648;10.098;2024-01-10T12:30:31;-1.80;99.90
8611;DHT22;4343;53.648;10.098;2024-01-10T12:33:00;-1.80;99.90
8611;DHT22;4343;53.648;10.098;2024-01-10T12:35:26;-1.80;99.90
8611;DHT22;4343;53.648;10.098;2024-01-10T12:37:55;-1.80;99.90
8611;DHT22;4343;53.648;10.098;2024-01-10T12:40:21;-1.80;99.90
8611;DHT22;4343;53.648;10.098;2024-01-10T12:42:47;-1.80;99.90
8611;DHT22;4343;53.648;10.098;2024-01-10T12:45:25;-1.70;99.90
8611;DHT22;4343;53.648;10.098;2024-01-10T12:47:53;-1.70;99.90
8611;DHT22;4343;53.648;10.098;2024-01-10T12:50:19;-1.70;99.90
8611;DHT22;4343;53.648;10.098;2024-01-10T12:52:45;-1.60;99.90
8611;DHT22;4343;53.648;10.098;2024-01-10T12:55:11;-1.60;99.90
8611;DHT22;4343;53.648;10.098;2024-01-10T12:57:36;-1.60;99.90
8611;DHT22;4343;53.648;10.098;2024-01-10T13:00:02;-1.60;99.90
8611;DHT22;4343;53.648;10.098;2024-01-10T13:02:35;-1.60;99.90
8611;DHT22;4343;53.648;10.098;2024-01-10T13:05:03;-1.60;99.90
8611;DHT22;4343;53.648;10.098;2024-01-10T13:07:29;-1.60;99.90
8611;DHT22;4343;53.648;10.098;2024-01-10T13:09:56;-1.60;99.90
8611;DHT22;4343;53.648;10.098;2024-01-10T13:12:22;-1.50;99.90
8611;DHT22;4343;53.648;10.098;2024-01-10T13:14:48;-1.60;99.90
8611;DHT22;4343;53.648;10.098;2024-01-10T13:17:13;-1.50;99.90
8611;DHT22;4343;53.648;10.098;2024-01-10T13:19:39;-1.50;99.90
8611;DHT22;4343;53.648;10.098;2024-01-10T13:22:04;-1.50;99.90
8611;DHT22;4343;53.648;10.098;2024-01-10T13:24:30;-1.50;99.90
8611;DHT22;4343;53.648;10.098;2024-01-10T13:26:55;-1.50;99.90
8611;DHT22;4343;53.648;10.098;2024-01-10T13:29:22;-1.50;99.90
8611;DHT22;4343;53.648;10.098;2024-01-10T13:31:47;-1.50;99.90
8611;DHT22;4343;53.648;10.098;2024-01-10T13:34:14;-1.50;99.90
8611;DHT22;4343;53.648;10.098;2024-01-10T13:36:40;-1.50;99.90
8611;DHT22;4343;53.648;10.098;2024-01-10T13:39:06;-1.50;99.90
8611;DHT22;4343;53.648;10.098;2024-01-10T13:41:33;-1.50;99.90
8611;DHT22;4343;53.648;10.098;2024-01-10T13:43:59;-1.50;99.90
8611;DHT22;4343;53.648;10.098;2024-01-10T13:46:24;-1.50;99.90
8611;DHT22;4343;53.648;10.098;2024-01-10T13:48:50;-1.50;99.90
8611;DHT22;4343;53.648;10.098;2024-01-10T13:51:15;-1.50;99.90
8611;DHT22;4343;53.648;10.098;2024-01-10T13:53:41;-1.50;99.90
8611;DHT22;4343;53.648;10.098;2024-01-10T13:56:06;-1.50;99.90
8611;DHT22;4343;53.648;10.098;2024-01-10T13:58:32;-1.50;99.90
8611;DHT22;4343;53.648;10.098;2024-01-10T14:00:58;-1.50;99.90
8611;DHT22;4343;53.648;10.098;2024-01-10T14:03:25;-1.50;99.90
8611;DHT22;4343;53.648;10.098;2024-01-10T14:05:50;-1.50;99.90
8611;DHT22;4343;53.648;10.098;2024-01-10T14:08:15;-1.50;99.90
8611;DHT22;4343;53.648;10.098;2024-01-10T14:10:41;-1.50;99.90
8611;DHT22;4343;53.648;10.098;2024-01-10T14:13:07;-1.50;99.90
8611;DHT22;4343;53.648;10.098;2024-01-10T14:15:33;-1.50;99.90
8611;DHT22;4343;53.648;10.098;2024-01-10T14:17:59;-1.50;99.90
8611;DHT22;4343;53.648;10.098;2024-01-10T14:20:24;-1.50;99.90
8611;DHT22;4343;53.648;10.098;2024-01-10T14:22:50;-1.50;99.90
8611;DHT22;4343;53.648;10.098;2024-01-10T14:25:15;-1.50;99.90
8611;DHT22;4343;53.648;10.098;2024-01-10T14:27:41;-1.60;99.90
8611;DHT22;4343;53.648;10.098;2024-01-10T14:30:07;-1.60;99.90
8611;DHT22;4343;53.648;10.098;2024-01-10T14:32:36;-1.60;99.90
8611;DHT22;4343;53.648;10.098;2024-01-10T14:35:02;-1.60;99.90
8611;DHT22;4343;53.648;10.098;2024-01-10T14:37:28;-1.60;99.90
8611;DHT22;4343;53.648;10.098;2024-01-10T14:39:53;-1.60;99.90
8611;DHT22;4343;53.648;10.098;2024-01-10T14:42:19;-1.60;99.90
8611;DHT22;4343;53.648;10.098;2024-01-10T14:44:44;-1.60;99.90
8611;DHT22;4343;53.648;10.098;2024-01-10T14:47:10;-1.60;99.90
8611;DHT22;4343;53.648;10.098;2024-01-10T14:49:36;-1.60;99.90
8611;DHT22;4343;53.648;10.098;2024-01-10T14:52:02;-1.70;99.90
8611;DHT22;4343;53.648;10.098;2024-01-10T14:54:28;-1.60;99.90
8611;DHT22;4343;53.648;10.098;2024-01-10T14:56:54;-1.70;99.90
8611;DHT22;4343;53.648;10.098;2024-01-10T14:59:19;-1.70;99.90
8611;DHT22;4343;53.648;10.098;2024-01-10T15:01:45;-1.80;99.90
8611;DHT22;4343;53.648;10.098;2024-01-10T15:04:12;-1.70;99.90
8611;DHT22;4343;53.648;10.098;2024-01-10T15:06:47;-1.80;99.90
8611;DHT22;4343;53.648;10.098;2024-01-10T15:09:13;-1.80;99.90
8611;DHT22;4343;53.648;10.098;2024-01-10T15:11:40;-1.80;99.90
8611;DHT22;4343;53.648;10.098;2024-01-10T15:14:07;-1.80;99.90
8611;DHT22;4343;53.648;10.098;2024-01-10T15:16:33;-1.80;99.90
8611;DHT22;4343;53.648;10.098;2024-01-10T15:18:59;-1.80;99.90
8611;DHT22;4343;53.648;10.098;2024-01-10T15:21:26;-1.80;99.90
8611;DHT22;4343;53.648;10.098;2024-01-10T15:23:52;-1.80;99.90
8611;DHT22;4343;53.648;10.098;2024-01-10T15:26:18;-1.80;99.90
8611;DHT22;4343;53.648;10.098;2024-01-10T15:28:45;-1.80;99.90
8611;DHT22;4343;53.648;10.098;2024-01-10T15:31:20;-1.80;99.90
8611;DHT22;4343;53.648;10.098;2024-01-10T15:33:46;-1.80;99.90
8611;DHT22;4343;53.648;10.098;2024-01-10T15:36:13;-1.90;99.90
8611;DHT22;4343;53.648;10.098;2024-01-10T15:38:41;-1.90;99.90
8611;DHT22;4343;53.648;10.098;2024-01-10T15:41:07;-1.90;99.90
8611;DHT22;4343;53.648;10.098;2024-01-10T15:43:34;-1.90;99.90
8611;DHT22;4343;53.648;10.098;2024-01-10T15:46:00;-1.90;99.90
8611;DHT22;4343;53.648;10.098;2024-01-10T15:48:26;-1.90;99.90
8611;DHT22;4343;53.648;10.098;2024-01-10T15:50:54;-1.90;99.90